sensor_id;sensor_type;location;lat;lon;timestamp;P1;durP1;ratioP1;P2;durP2;ratioP2
59824;SDS011;45703;50.898;6.054;2023-05-14T00:01:36;11.93;;;8.93;;
59824;SDS011;45703;50.898;6.054;2023-05-14T00:04:04;13.32;;;8.48;;
59824;SDS011;45703;50.898;6.054;2023-05-14T00:06:30;12.13;;;8.95;;
59824;SDS011;45703;50.898;6.054;2023-05-14T00:08:55;10.60;;;7.82;;
59824;SDS011;45703;50.898;6.054;2023-05-14T00:11:21;11.32;;;8.65;;
59824;SDS011;45703;50.898;6.054;2023-05-14T00:13:46;11.50;;;8.30;;
59824;SDS011;45703;50.898;6.054;2023-05-14T00:16:12;10.50;;;8.00;;
59824;SDS011;45703;50.898;6.054;2023-05-14T00:18:37;10.60;;;7.80;;
59824;SDS011;45703;50.898;6.054;2023-05-14T00:21:02;11.18;;;8.20;;
59824;SDS011;45703;50.898;6.054;2023-05-14T00:23:28;10.48;;;7.63;;
59824;SDS011;45703;50.898;6.054;2023-05-14T00:25:53;15.10;;;8.45;;
59824;SDS011;45703;50.898;6.054;2023-05-14T00:28:19;11.60;;;8.20;;
59824;SDS011;45703;50.898;6.054;2023-05-14T00:30:45;11.95;;;8.38;;
59824;SDS011;45703;50.898;6.054;2023-05-14T00:33:10;12.10;;;9.18;;
59824;SDS011;45703;50.898;6.054;2023-05-14T00:35:35;11.65;;;8.63;;
59824;SDS011;45703;50.898;6.054;2023-05-14T00:38:01;11.05;;;8.60;;
59824;SDS011;45703;50.898;6.054;2023-05-14T00:40:27;13.32;;;8.65;;
59824;SDS011;45703;50.898;6.054;2023-05-14T00:42:53;10.32;;;7.70;;
59824;SDS011;45703;50.898;6.054;2023-05-14T00:45:20;13.52;;;8.57;;
59824;SDS011;45703;50.898;6.054;2023-05-14T00:47:46;10.77;;;8.30;;
59824;SDS011;45703;50.898;6.054;2023-05-14T00:50:12;10.32;;;7.70;;
59824;SDS011;45703;50.898;6.054;2023-05-14T00:52:39;11.07;;;8.80;;
59824;SDS011;45703;50.898;6.054;2023-05-14T00:55:05;11.43;;;7.97;;
59824;SDS011;45703;50.898;6.054;2023-05-14T00:57:32;9.95;;;7.43;;
59824;SDS011;45703;50.898;6.054;2023-05-14T00:59:58;10.60;;;7.35;;
59824;SDS011;45703;50.898;6.054;2023-05-14T01:02:24;11.07;;;7.85;;
59824;SDS011;45703;50.898;6.054;2023-05-14T01:04:50;11.00;;;7.45;;
59824;SDS011;45703;50.898;6.054;2023-05-14T01:13:12;11.32;;;7.53;;
59824;SDS011;45703;50.898;6.054;2023-05-14T01:15:50;10.07;;;7.63;;
59824;SDS011;45703;50.898;6.054;2023-05-14T01:18:20;12.38;;;7.72;;
59824;SDS011;45703;50.898;6.054;2023-05-14T01:20:48;12.77;;;7.72;;
59824;SDS011;45703;50.898;6.054;2023-05-14T01:23:15;10.93;;;7.70;;
59824;SDS011;45703;50.898;6.054;2023-05-14T01:25:40;12.02;;;7.85;;
59824;SDS011;45703;50.898;6.054;2023-05-14T01:28:16;12.05;;;7.25;;
59824;SDS011;45703;50.898;6.054;2023-05-14T01:30:56;10.57;;;7.82;;
59824;SDS011;45703;50.898;6.054;2023-05-14T01:33:26;10.63;;;7.90;;
59824;SDS011;45703;50.898;6.054;2023-05-14T01:35:54;11.98;;;8.52;;
59824;SDS011;45703;50.898;6.054;2023-05-14T01:38:20;10.68;;;7.72;;
59824;SDS011;45703;50.898;6.054;2023-05-14T01:40:47;10.32;;;7.50;;
59824;SDS011;45703;50.898;6.054;2023-05-14T01:43:14;11.98;;;7.70;;
59824;SDS011;45703;50.898;6.054;2023-05-14T01:45:40;9.93;;;7.53;;
59824;SDS011;45703;50.898;6.054;2023-05-14T01:48:06;10.15;;;7.68;;
59824;SDS011;45703;50.898;6.054;2023-05-14T01:50:31;9.82;;;7.18;;
59824;SDS011;45703;50.898;6.054;2023-05-14T01:52:57;10.77;;;7.35;;
59824;SDS011;45703;50.898;6.054;2023-05-14T01:55:22;11.00;;;8.15;;
59824;SDS011;45703;50.898;6.054;2023-05-14T01:57:48;10.68;;;7.93;;
59824;SDS011;45703;50.898;6.054;2023-05-14T02:00:14;12.85;;;8.48;;
59824;SDS011;45703;50.898;6.054;2023-05-14T02:02:40;10.65;;;7.93;;
59824;SDS011;45703;50.898;6.054;2023-05-14T02:05:06;10.05;;;7.70;;
59824;SDS011;45703;50.898;6.054;2023-05-14T02:07:31;11.48;;;8.20;;
59824;SDS011;45703;50.898;6.054;2023-05-14T02:09:57;11.52;;;7.70;;
59824;SDS011;45703;50.898;6.054;2023-05-14T02:12:22;11.93;;;8.25;;
59824;SDS011;45703;50.898;6.054;2023-05-14T02:14:48;11.20;;;7.70;;
59824;SDS011;45703;50.898;6.054;2023-05-14T02:17:13;11.27;;;8.43;;
59824;SDS011;45703;50.898;6.054;2023-05-14T02:19:42;10.73;;;8.45;;
59824;SDS011;45703;50.898;6.054;2023-05-14T02:22:08;11.30;;;8.35;;
59824;SDS011;45703;50.898;6.054;2023-05-14T02:24:33;11.60;;;7.53;;
59824;SDS011;45703;50.898;6.054;2023-05-14T02:26:58;10.52;;;7.45;;
59824;SDS011;45703;50.898;6.054;2023-05-14T02:29:25;11.02;;;8.07;;
59824;SDS011;45703;50.898;6.054;2023-05-14T02:31:50;11.32;;;8.30;;
59824;SDS011;45703;50.898;6.054;2023-05-14T02:34:16;11.20;;;7.93;;
59824;SDS011;45703;50.898;6.054;2023-05-14T02:36:41;10.93;;;7.95;;
59824;SDS011;45703;50.898;6.054;2023-05-14T02:39:07;10.77;;;7.70;;
59824;SDS011;45703;50.898;6.054;2023-05-14T02:41:32;12.35;;;8.20;;
59824;SDS011;45703;50.898;6.054;2023-05-14T02:43:57;12.13;;;8.70;;
59824;SDS011;45703;50.898;6.054;2023-05-14T02:46:23;12.65;;;8.35;;
59824;SDS011;45703;50.898;6.054;2023-05-14T02:48:48;12.80;;;8.90;;
59824;SDS011;45703;50.898;6.054;2023-05-14T02:51:14;11.27;;;8.15;;
59824;SDS011;45703;50.898;6.054;2023-05-14T02:53:40;11.23;;;8.90;;
59824;SDS011;45703;50.898;6.054;2023-05-14T02:56:05;11.45;;;8.48;;
59824;SDS011;45703;50.898;6.054;2023-05-14T02:58:32;10.82;;;7.32;;
59824;SDS011;45703;50.898;6.054;2023-05-14T03:00:57;13.55;;;8.48;;
59824;SDS011;45703;50.898;6.054;2023-05-14T03:03:23;10.63;;;8.60;;
59824;SDS011;45703;50.898;6.054;2023-05-14T03:05:48;11.10;;;8.20;;
59824;SDS011;45703;50.898;6.054;2023-05-14T03:08:14;12.10;;;7.90;;
59824;SDS011;45703;50.898;6.054;2023-05-14T03:10:39;10.80;;;7.90;;
59824;SDS011;45703;50.898;6.054;2023-05-14T03:13:04;10.77;;;7.75;;
59824;SDS011;45703;50.898;6.054;2023-05-14T03:15:30;11.70;;;8.50;;
59824;SDS011;45703;50.898;6.054;2023-05-14T03:17:55;11.68;;;7.63;;
59824;SDS011;45703;50.898;6.054;2023-05-14T03:20:22;10.85;;;8.15;;
59824;SDS011;45703;50.898;6.054;2023-05-14T03:22:48;10.20;;;7.28;;
59824;SDS011;45703;50.898;6.054;2023-05-14T03:25:13;9.95;;;7.32;;
59824;SDS011;45703;50.898;6.054;2023-05-14T03:27:39;10.48;;;7.95;;
59824;SDS011;45703;50.898;6.054;2023-05-14T03:30:05;11.60;;;7.35;;
59824;SDS011;45703;50.898;6.054;2023-05-14T03:32:30;10.43;;;7.35;;
59824;SDS011;45703;50.898;6.054;2023-05-14T03:34:56;11.18;;;7.95;;
59824;SDS011;45703;50.898;6.054;2023-05-14T03:37:21;11.68;;;7.60;;
59824;SDS011;45703;50.898;6.054;2023-05-14T03:39:47;10.60;;;7.93;;
59824;SDS011;45703;50.898;6.054;2023-05-14T03:42:12;11.50;;;7.93;;
59824;SDS011;45703;50.898;6.054;2023-05-14T03:44:38;12.27;;;8.57;;
59824;SDS011;45703;50.898;6.054;2023-05-14T03:47:03;20.23;;;8.05;;
59824;SDS011;45703;50.898;6.054;2023-05-14T03:49:29;11.98;;;8.43;;
59824;SDS011;45703;50.898;6.054;2023-05-14T03:51:54;11.45;;;8.15;;
59824;SDS011;45703;50.898;6.054;2023-05-14T03:54:20;11.38;;;8.18;;
59824;SDS011;45703;50.898;6.054;2023-05-14T03:56:45;10.88;;;8.32;;
59824;SDS011;45703;50.898;6.054;2023-05-14T03:59:10;11.55;;;7.70;;
59824;SDS011;45703;50.898;6.054;2023-05-14T04:01:36;11.60;;;8.32;;
59824;SDS011;45703;50.898;6.054;2023-05-14T04:04:01;11.38;;;8.50;;
59824;SDS011;45703;50.898;6.054;2023-05-14T04:06:26;13.85;;;8.82;;
59824;SDS011;45703;50.898;6.054;2023-05-14T04:08:52;11.90;;;8.38;;
59824;SDS011;45703;50.898;6.054;2023-05-14T04:11:17;12.02;;;8.27;;
59824;SDS011;45703;50.898;6.054;2023-05-14T04:13:43;11.40;;;8.00;;
59824;SDS011;45703;50.898;6.054;2023-05-14T04:16:08;11.52;;;8.32;;
59824;SDS011;45703;50.898;6.054;2023-05-14T04:18:33;11.32;;;8.32;;
59824;SDS011;45703;50.898;6.054;2023-05-14T04:21:00;10.90;;;7.85;;
59824;SDS011;45703;50.898;6.054;2023-05-14T04:23:26;10.63;;;7.75;;
59824;SDS011;45703;50.898;6.054;2023-05-14T04:25:51;11.07;;;8.20;;
59824;SDS011;45703;50.898;6.054;2023-05-14T04:28:16;11.07;;;7.75;;
59824;SDS011;45703;50.898;6.054;2023-05-14T04:30:42;11.07;;;8.15;;
59824;SDS011;45703;50.898;6.054;2023-05-14T04:33:07;11.05;;;8.02;;
59824;SDS011;45703;50.898;6.054;2023-05-14T04:35:33;10.98;;;7.63;;
59824;SDS011;45703;50.898;6.054;2023-05-14T04:37:58;10.68;;;7.75;;
59824;SDS011;45703;50.898;6.054;2023-05-14T04:40:23;11.48;;;8.02;;
59824;SDS011;45703;50.898;6.054;2023-05-14T04:42:49;11.30;;;8.32;;
59824;SDS011;45703;50.898;6.054;2023-05-14T04:45:14;12.18;;;8.32;;
59824;SDS011;45703;50.898;6.054;2023-05-14T04:47:40;10.68;;;7.65;;
59824;SDS011;45703;50.898;6.054;2023-05-14T04:50:06;11.30;;;7.65;;
59824;SDS011;45703;50.898;6.054;2023-05-14T04:52:33;12.02;;;8.48;;
59824;SDS011;45703;50.898;6.054;2023-05-14T04:54:59;11.52;;;7.55;;
59824;SDS011;45703;50.898;6.054;2023-05-14T04:57:25;11.88;;;7.90;;
59824;SDS011;45703;50.898;6.054;2023-05-14T04:59:50;10.73;;;7.55;;
59824;SDS011;45703;50.898;6.054;2023-05-14T05:02:16;11.02;;;7.90;;
59824;SDS011;45703;50.898;6.054;2023-05-14T05:04:41;11.60;;;8.45;;
59824;SDS011;45703;50.898;6.054;2023-05-14T05:07:06;11.32;;;8.43;;
59824;SDS011;45703;50.898;6.054;2023-05-14T05:09:32;11.07;;;7.97;;
59824;SDS011;45703;50.898;6.054;2023-05-14T05:11:57;10.75;;;7.68;;
59824;SDS011;45703;50.898;6.054;2023-05-14T05:14:22;11.10;;;7.68;;
59824;SDS011;45703;50.898;6.054;2023-05-14T05:16:49;11.60;;;8.05;;
59824;SDS011;45703;50.898;6.054;2023-05-14T05:19:15;11.20;;;8.05;;
59824;SDS011;45703;50.898;6.054;2023-05-14T05:21:40;10.52;;;7.72;;
59824;SDS011;45703;50.898;6.054;2023-05-14T05:24:06;10.65;;;7.75;;
59824;SDS011;45703;50.898;6.054;2023-05-14T05:26:32;11.15;;;8.35;;
59824;SDS011;45703;50.898;6.054;2023-05-14T05:29:00;12.65;;;8.82;;
59824;SDS011;45703;50.898;6.054;2023-05-14T05:31:26;11.23;;;8.65;;
59824;SDS011;45703;50.898;6.054;2023-05-14T05:33:51;12.52;;;9.50;;
59824;SDS011;45703;50.898;6.054;2023-05-14T05:36:17;11.60;;;7.95;;
59824;SDS011;45703;50.898;6.054;2023-05-14T05:38:42;15.88;;;10.52;;
59824;SDS011;45703;50.898;6.054;2023-05-14T05:41:08;13.20;;;9.55;;
59824;SDS011;45703;50.898;6.054;2023-05-14T05:43:33;13.30;;;9.70;;
59824;SDS011;45703;50.898;6.054;2023-05-14T05:45:59;16.65;;;12.10;;
59824;SDS011;45703;50.898;6.054;2023-05-14T05:48:25;19.08;;;14.48;;
59824;SDS011;45703;50.898;6.054;2023-05-14T05:50:50;19.92;;;14.95;;
59824;SDS011;45703;50.898;6.054;2023-05-14T05:53:15;19.92;;;13.88;;
59824;SDS011;45703;50.898;6.054;2023-05-14T05:55:41;21.75;;;15.38;;
59824;SDS011;45703;50.898;6.054;2023-05-14T05:58:07;23.65;;;16.73;;
59824;SDS011;45703;50.898;6.054;2023-05-14T06:00:32;21.98;;;16.08;;
59824;SDS011;45703;50.898;6.054;2023-05-14T06:02:58;21.20;;;16.33;;
59824;SDS011;45703;50.898;6.054;2023-05-14T06:05:23;22.75;;;17.30;;
59824;SDS011;45703;50.898;6.054;2023-05-14T06:07:49;25.63;;;17.15;;
59824;SDS011;45703;50.898;6.054;2023-05-14T06:10:15;24.27;;;17.10;;
59824;SDS011;45703;50.898;6.054;2023-05-14T06:12:40;24.73;;;16.63;;
59824;SDS011;45703;50.898;6.054;2023-05-14T06:15:06;28.00;;;18.42;;
59824;SDS011;45703;50.898;6.054;2023-05-14T06:17:31;30.63;;;21.85;;
59824;SDS011;45703;50.898;6.054;2023-05-14T06:19:57;30.52;;;21.85;;
59824;SDS011;45703;50.898;6.054;2023-05-14T06:22:22;28.45;;;20.83;;
59824;SDS011;45703;50.898;6.054;2023-05-14T06:24:48;30.98;;;21.83;;
59824;SDS011;45703;50.898;6.054;2023-05-14T06:27:13;27.85;;;20.17;;
59824;SDS011;45703;50.898;6.054;2023-05-14T06:29:38;26.13;;;18.88;;
59824;SDS011;45703;50.898;6.054;2023-05-14T06:32:04;29.60;;;20.92;;
59824;SDS011;45703;50.898;6.054;2023-05-14T06:34:30;29.65;;;19.17;;
59824;SDS011;45703;50.898;6.054;2023-05-14T06:36:56;27.67;;;19.92;;
59824;SDS011;45703;50.898;6.054;2023-05-14T06:39:21;24.55;;;17.85;;
59824;SDS011;45703;50.898;6.054;2023-05-14T06:41:48;24.85;;;18.48;;
59824;SDS011;45703;50.898;6.054;2023-05-14T06:44:14;29.02;;;21.23;;
59824;SDS011;45703;50.898;6.054;2023-05-14T06:46:40;29.52;;;21.85;;
59824;SDS011;45703;50.898;6.054;2023-05-14T06:49:05;28.10;;;20.58;;
59824;SDS011;45703;50.898;6.054;2023-05-14T06:51:31;29.27;;;21.77;;
59824;SDS011;45703;50.898;6.054;2023-05-14T06:53:56;30.17;;;22.08;;
59824;SDS011;45703;50.898;6.054;2023-05-14T06:56:22;30.23;;;21.60;;
59824;SDS011;45703;50.898;6.054;2023-05-14T06:58:47;29.50;;;21.13;;
59824;SDS011;45703;50.898;6.054;2023-05-14T07:01:13;31.77;;;21.23;;
59824;SDS011;45703;50.898;6.054;2023-05-14T07:03:38;27.75;;;20.65;;
59824;SDS011;45703;50.898;6.054;2023-05-14T07:06:04;31.27;;;23.33;;
59824;SDS011;45703;50.898;6.054;2023-05-14T07:08:30;33.10;;;22.80;;
59824;SDS011;45703;50.898;6.054;2023-05-14T07:10:56;30.08;;;21.98;;
59824;SDS011;45703;50.898;6.054;2023-05-14T07:13:21;29.23;;;21.77;;
59824;SDS011;45703;50.898;6.054;2023-05-14T07:15:47;33.22;;;25.58;;
59824;SDS011;45703;50.898;6.054;2023-05-14T07:18:12;30.33;;;22.52;;
59824;SDS011;45703;50.898;6.054;2023-05-14T07:20:38;32.50;;;23.55;;
59824;SDS011;45703;50.898;6.054;2023-05-14T07:23:03;31.58;;;23.48;;
59824;SDS011;45703;50.898;6.054;2023-05-14T07:25:29;32.35;;;24.10;;
59824;SDS011;45703;50.898;6.054;2023-05-14T07:27:54;31.45;;;23.15;;
59824;SDS011;45703;50.898;6.054;2023-05-14T07:30:20;30.73;;;23.38;;
59824;SDS011;45703;50.898;6.054;2023-05-14T07:32:45;29.02;;;22.77;;
59824;SDS011;45703;50.898;6.054;2023-05-14T07:35:10;29.88;;;21.55;;
59824;SDS011;45703;50.898;6.054;2023-05-14T07:37:36;27.20;;;20.40;;
59824;SDS011;45703;50.898;6.054;2023-05-14T07:40:02;32.28;;;24.25;;
59824;SDS011;45703;50.898;6.054;2023-05-14T07:42:27;33.72;;;23.38;;
59824;SDS011;45703;50.898;6.054;2023-05-14T07:44:53;31.13;;;24.40;;
59824;SDS011;45703;50.898;6.054;2023-05-14T07:47:18;32.63;;;23.02;;
59824;SDS011;45703;50.898;6.054;2023-05-14T07:49:43;32.90;;;24.65;;
59824;SDS011;45703;50.898;6.054;2023-05-14T07:52:09;29.77;;;22.23;;
59824;SDS011;45703;50.898;6.054;2023-05-14T07:54:34;31.30;;;23.95;;
59824;SDS011;45703;50.898;6.054;2023-05-14T07:57:00;34.55;;;24.65;;
59824;SDS011;45703;50.898;6.054;2023-05-14T07:59:25;32.95;;;25.50;;
59824;SDS011;45703;50.898;6.054;2023-05-14T08:01:50;31.83;;;24.25;;
59824;SDS011;45703;50.898;6.054;2023-05-14T08:04:16;33.72;;;25.30;;
59824;SDS011;45703;50.898;6.054;2023-05-14T08:06:42;30.50;;;24.17;;
59824;SDS011;45703;50.898;6.054;2023-05-14T08:09:07;34.08;;;25.58;;
59824;SDS011;45703;50.898;6.054;2023-05-14T08:11:33;33.88;;;26.55;;
59824;SDS011;45703;50.898;6.054;2023-05-14T08:13:59;32.90;;;25.77;;
59824;SDS011;45703;50.898;6.054;2023-05-14T08:16:24;35.70;;;26.05;;
59824;SDS011;45703;50.898;6.054;2023-05-14T08:18:50;38.00;;;28.33;;
59824;SDS011;45703;50.898;6.054;2023-05-14T08:21:15;33.97;;;25.38;;
59824;SDS011;45703;50.898;6.054;2023-05-14T08:23:41;37.28;;;27.50;;
59824;SDS011;45703;50.898;6.054;2023-05-14T08:26:07;34.90;;;27.73;;
59824;SDS011;45703;50.898;6.054;2023-05-14T08:28:32;36.83;;;28.05;;
59824;SDS011;45703;50.898;6.054;2023-05-14T08:30:58;37.88;;;27.75;;
59824;SDS011;45703;50.898;6.054;2023-05-14T08:33:23;35.33;;;27.23;;
59824;SDS011;45703;50.898;6.054;2023-05-14T08:35:49;33.75;;;26.23;;
59824;SDS011;45703;50.898;6.054;2023-05-14T08:38:16;36.47;;;28.27;;
59824;SDS011;45703;50.898;6.054;2023-05-14T08:40:45;36.78;;;29.17;;
59824;SDS011;45703;50.898;6.054;2023-05-14T08:43:16;37.13;;;27.80;;
59824;SDS011;45703;50.898;6.054;2023-05-14T08:45:45;41.67;;;31.70;;
59824;SDS011;45703;50.898;6.054;2023-05-14T08:48:12;36.58;;;27.55;;
59824;SDS011;45703;50.898;6.054;2023-05-14T08:50:39;38.45;;;29.20;;
59824;SDS011;45703;50.898;6.054;2023-05-14T08:53:05;35.60;;;28.23;;
59824;SDS011;45703;50.898;6.054;2023-05-14T08:55:30;35.72;;;28.92;;
59824;SDS011;45703;50.898;6.054;2023-05-14T08:57:58;38.08;;;28.88;;
59824;SDS011;45703;50.898;6.054;2023-05-14T09:00:23;44.65;;;31.58;;
59824;SDS011;45703;50.898;6.054;2023-05-14T09:02:50;39.97;;;30.20;;
59824;SDS011;45703;50.898;6.054;2023-05-14T09:05:16;39.58;;;31.45;;
59824;SDS011;45703;50.898;6.054;2023-05-14T09:07:43;37.38;;;28.98;;
59824;SDS011;45703;50.898;6.054;2023-05-14T09:10:09;37.33;;;29.08;;
59824;SDS011;45703;50.898;6.054;2023-05-14T09:12:35;40.05;;;31.30;;
59824;SDS011;45703;50.898;6.054;2023-05-14T09:15:01;38.80;;;29.90;;
59824;SDS011;45703;50.898;6.054;2023-05-14T09:17:26;40.53;;;29.67;;
59824;SDS011;45703;50.898;6.054;2023-05-14T09:19:52;42.42;;;30.70;;
59824;SDS011;45703;50.898;6.054;2023-05-14T09:22:18;38.05;;;29.35;;
59824;SDS011;45703;50.898;6.054;2023-05-14T09:24:44;37.85;;;29.48;;
59824;SDS011;45703;50.898;6.054;2023-05-14T09:27:19;36.70;;;29.33;;
59824;SDS011;45703;50.898;6.054;2023-05-14T09:29:46;36.55;;;29.13;;
59824;SDS011;45703;50.898;6.054;2023-05-14T09:32:12;38.00;;;29.17;;
59824;SDS011;45703;50.898;6.054;2023-05-14T09:34:38;40.72;;;30.90;;
59824;SDS011;45703;50.898;6.054;2023-05-14T09:37:04;41.05;;;31.80;;
59824;SDS011;45703;50.898;6.054;2023-05-14T09:39:34;37.53;;;29.75;;
59824;SDS011;45703;50.898;6.054;2023-05-14T09:42:00;37.63;;;29.98;;
59824;SDS011;45703;50.898;6.054;2023-05-14T09:44:27;38.95;;;31.15;;
59824;SDS011;45703;50.898;6.054;2023-05-14T09:46:53;40.10;;;31.42;;
59824;SDS011;45703;50.898;6.054;2023-05-14T09:49:19;41.58;;;31.88;;
59824;SDS011;45703;50.898;6.054;2023-05-14T09:51:45;37.38;;;29.75;;
59824;SDS011;45703;50.898;6.054;2023-05-14T09:54:10;40.10;;;32.33;;
59824;SDS011;45703;50.898;6.054;2023-05-14T09:56:36;38.13;;;30.85;;
59824;SDS011;45703;50.898;6.054;2023-05-14T09:59:02;39.28;;;30.05;;
59824;SDS011;45703;50.898;6.054;2023-05-14T10:01:28;41.35;;;31.92;;
59824;SDS011;45703;50.898;6.054;2023-05-14T10:03:54;39.50;;;31.38;;
59824;SDS011;45703;50.898;6.054;2023-05-14T10:06:27;40.67;;;30.48;;
59824;SDS011;45703;50.898;6.054;2023-05-14T10:09:01;39.88;;;31.00;;
59824;SDS011;45703;50.898;6.054;2023-05-14T10:11:30;40.70;;;32.28;;
59824;SDS011;45703;50.898;6.054;2023-05-14T10:16:56;44.78;;;34.58;;
59824;SDS011;45703;50.898;6.054;2023-05-14T10:19:23;38.85;;;30.40;;
59824;SDS011;45703;50.898;6.054;2023-05-14T10:21:58;38.05;;;29.80;;
59824;SDS011;45703;50.898;6.054;2023-05-14T10:24:29;39.35;;;31.65;;
59824;SDS011;45703;50.898;6.054;2023-05-14T10:26:56;41.67;;;32.22;;
59824;SDS011;45703;50.898;6.054;2023-05-14T10:29:35;37.90;;;30.30;;
59824;SDS011;45703;50.898;6.054;2023-05-14T10:32:05;41.78;;;32.03;;
59824;SDS011;45703;50.898;6.054;2023-05-14T10:37:40;42.45;;;33.90;;
59824;SDS011;45703;50.898;6.054;2023-05-14T10:39:53;40.38;;;31.42;;
59824;SDS011;45703;50.898;6.054;2023-05-14T10:42:26;38.63;;;31.30;;
59824;SDS011;45703;50.898;6.054;2023-05-14T10:44:56;41.13;;;32.67;;
59824;SDS011;45703;50.898;6.054;2023-05-14T10:47:25;39.53;;;31.15;;
59824;SDS011;45703;50.898;6.054;2023-05-14T10:49:55;39.67;;;31.58;;
59824;SDS011;45703;50.898;6.054;2023-05-14T10:52:22;40.97;;;31.98;;
59824;SDS011;45703;50.898;6.054;2023-05-14T10:54:52;40.47;;;33.40;;
59824;SDS011;45703;50.898;6.054;2023-05-14T10:57:20;36.92;;;30.10;;
59824;SDS011;45703;50.898;6.054;2023-05-14T10:59:47;40.20;;;32.85;;
59824;SDS011;45703;50.898;6.054;2023-05-14T11:02:20;39.58;;;32.53;;
59824;SDS011;45703;50.898;6.054;2023-05-14T11:04:52;39.40;;;31.60;;
59824;SDS011;45703;50.898;6.054;2023-05-14T11:07:58;40.17;;;31.85;;
59824;SDS011;45703;50.898;6.054;2023-05-14T11:10:17;38.03;;;32.33;;
59824;SDS011;45703;50.898;6.054;2023-05-14T11:12:47;39.47;;;32.08;;
59824;SDS011;45703;50.898;6.054;2023-05-14T11:17:41;36.15;;;30.02;;
59824;SDS011;45703;50.898;6.054;2023-05-14T11:20:08;38.88;;;32.15;;
59824;SDS011;45703;50.898;6.054;2023-05-14T11:22:35;35.92;;;30.48;;
59824;SDS011;45703;50.898;6.054;2023-05-14T11:25:01;35.95;;;30.30;;
59824;SDS011;45703;50.898;6.054;2023-05-14T11:27:27;36.88;;;30.10;;
59824;SDS011;45703;50.898;6.054;2023-05-14T11:29:55;38.22;;;31.45;;
59824;SDS011;45703;50.898;6.054;2023-05-14T11:32:22;37.40;;;31.50;;
59824;SDS011;45703;50.898;6.054;2023-05-14T11:34:47;33.97;;;28.98;;
59824;SDS011;45703;50.898;6.054;2023-05-14T11:37:13;33.00;;;28.52;;
59824;SDS011;45703;50.898;6.054;2023-05-14T11:42:33;31.50;;;27.00;;
59824;SDS011;45703;50.898;6.054;2023-05-14T11:45:00;31.85;;;26.95;;
59824;SDS011;45703;50.898;6.054;2023-05-14T11:47:27;34.45;;;30.10;;
59824;SDS011;45703;50.898;6.054;2023-05-14T11:49:53;35.63;;;29.70;;
59824;SDS011;45703;50.898;6.054;2023-05-14T11:52:19;32.60;;;28.38;;
59824;SDS011;45703;50.898;6.054;2023-05-14T11:54:46;32.13;;;27.63;;
59824;SDS011;45703;50.898;6.054;2023-05-14T11:57:15;33.05;;;27.88;;
59824;SDS011;45703;50.898;6.054;2023-05-14T11:59:44;30.88;;;26.30;;
59824;SDS011;45703;50.898;6.054;2023-05-14T12:02:10;30.73;;;26.63;;
59824;SDS011;45703;50.898;6.054;2023-05-14T12:04:37;32.50;;;27.17;;
59824;SDS011;45703;50.898;6.054;2023-05-14T12:07:06;30.63;;;25.50;;
59824;SDS011;45703;50.898;6.054;2023-05-14T12:09:42;32.78;;;26.98;;
59824;SDS011;45703;50.898;6.054;2023-05-14T12:12:21;31.23;;;26.13;;
59824;SDS011;45703;50.898;6.054;2023-05-14T12:14:47;23.98;;;21.13;;
59824;SDS011;45703;50.898;6.054;2023-05-14T12:17:17;22.63;;;19.98;;
59824;SDS011;45703;50.898;6.054;2023-05-14T12:22:10;23.15;;;19.05;;
59824;SDS011;45703;50.898;6.054;2023-05-14T12:24:39;22.98;;;19.02;;
59824;SDS011;45703;50.898;6.054;2023-05-14T12:27:05;19.42;;;16.67;;
59824;SDS011;45703;50.898;6.054;2023-05-14T12:29:35;19.98;;;16.58;;
59824;SDS011;45703;50.898;6.054;2023-05-14T12:34:33;20.90;;;16.70;;
59824;SDS011;45703;50.898;6.054;2023-05-14T12:36:59;21.05;;;17.38;;
59824;SDS011;45703;50.898;6.054;2023-05-14T12:39:24;19.65;;;15.82;;
59824;SDS011;45703;50.898;6.054;2023-05-14T12:41:49;18.17;;;15.45;;
59824;SDS011;45703;50.898;6.054;2023-05-14T12:44:15;16.15;;;14.10;;
59824;SDS011;45703;50.898;6.054;2023-05-14T12:46:40;18.08;;;14.57;;
59824;SDS011;45703;50.898;6.054;2023-05-14T12:49:06;15.13;;;12.90;;
59824;SDS011;45703;50.898;6.054;2023-05-14T12:51:31;15.50;;;13.32;;
59824;SDS011;45703;50.898;6.054;2023-05-14T12:53:57;19.10;;;14.05;;
59824;SDS011;45703;50.898;6.054;2023-05-14T12:56:23;15.65;;;13.23;;
59824;SDS011;45703;50.898;6.054;2023-05-14T12:58:52;16.88;;;13.05;;
59824;SDS011;45703;50.898;6.054;2023-05-14T13:01:19;16.80;;;12.75;;
59824;SDS011;45703;50.898;6.054;2023-05-14T13:03:44;14.98;;;12.55;;
59824;SDS011;45703;50.898;6.054;2023-05-14T13:06:10;16.10;;;13.27;;
59824;SDS011;45703;50.898;6.054;2023-05-14T13:08:35;15.70;;;12.82;;
59824;SDS011;45703;50.898;6.054;2023-05-14T13:11:01;15.30;;;12.50;;
59824;SDS011;45703;50.898;6.054;2023-05-14T13:13:26;15.70;;;12.77;;
59824;SDS011;45703;50.898;6.054;2023-05-14T13:15:51;13.75;;;11.55;;
59824;SDS011;45703;50.898;6.054;2023-05-14T13:18:17;14.75;;;12.20;;
59824;SDS011;45703;50.898;6.054;2023-05-14T13:20:43;15.82;;;11.48;;
59824;SDS011;45703;50.898;6.054;2023-05-14T13:23:10;13.00;;;11.57;;
59824;SDS011;45703;50.898;6.054;2023-05-14T13:25:35;14.35;;;12.82;;
59824;SDS011;45703;50.898;6.054;2023-05-14T13:28:01;15.82;;;12.18;;
59824;SDS011;45703;50.898;6.054;2023-05-14T13:30:26;13.15;;;11.40;;
59824;SDS011;45703;50.898;6.054;2023-05-14T13:32:51;13.23;;;11.13;;
59824;SDS011;45703;50.898;6.054;2023-05-14T13:35:17;12.68;;;11.15;;
59824;SDS011;45703;50.898;6.054;2023-05-14T13:37:43;13.75;;;10.30;;
59824;SDS011;45703;50.898;6.054;2023-05-14T13:40:08;13.90;;;12.10;;
59824;SDS011;45703;50.898;6.054;2023-05-14T13:42:34;13.35;;;11.45;;
59824;SDS011;45703;50.898;6.054;2023-05-14T13:45:01;11.48;;;10.27;;
59824;SDS011;45703;50.898;6.054;2023-05-14T13:47:27;12.98;;;10.30;;
59824;SDS011;45703;50.898;6.054;2023-05-14T13:49:52;12.50;;;9.98;;
59824;SDS011;45703;50.898;6.054;2023-05-14T13:52:18;13.35;;;10.07;;
59824;SDS011;45703;50.898;6.054;2023-05-14T13:54:44;11.73;;;9.40;;
59824;SDS011;45703;50.898;6.054;2023-05-14T13:57:09;13.63;;;10.93;;
59824;SDS011;45703;50.898;6.054;2023-05-14T13:59:35;13.80;;;10.75;;
59824;SDS011;45703;50.898;6.054;2023-05-14T14:02:00;13.27;;;10.88;;
59824;SDS011;45703;50.898;6.054;2023-05-14T14:04:26;14.15;;;10.90;;
59824;SDS011;45703;50.898;6.054;2023-05-14T14:06:54;13.00;;;10.90;;
59824;SDS011;45703;50.898;6.054;2023-05-14T14:09:20;12.27;;;10.88;;
59824;SDS011;45703;50.898;6.054;2023-05-14T14:11:46;12.13;;;10.57;;
59824;SDS011;45703;50.898;6.054;2023-05-14T14:14:12;12.18;;;10.88;;
59824;SDS011;45703;50.898;6.054;2023-05-14T14:16:37;12.10;;;10.80;;
59824;SDS011;45703;50.898;6.054;2023-05-14T14:19:03;12.07;;;10.00;;
59824;SDS011;45703;50.898;6.054;2023-05-14T14:21:29;11.70;;;9.93;;
59824;SDS011;45703;50.898;6.054;2023-05-14T14:23:55;11.73;;;10.50;;
59824;SDS011;45703;50.898;6.054;2023-05-14T14:26:20;11.13;;;9.77;;
59824;SDS011;45703;50.898;6.054;2023-05-14T14:28:45;11.65;;;10.45;;
59824;SDS011;45703;50.898;6.054;2023-05-14T14:31:11;12.32;;;10.18;;
59824;SDS011;45703;50.898;6.054;2023-05-14T14:33:37;11.05;;;9.85;;
59824;SDS011;45703;50.898;6.054;2023-05-14T14:36:02;12.75;;;10.57;;
59824;SDS011;45703;50.898;6.054;2023-05-14T14:38:28;11.30;;;8.73;;
59824;SDS011;45703;50.898;6.054;2023-05-14T14:40:53;11.85;;;9.77;;
59824;SDS011;45703;50.898;6.054;2023-05-14T14:43:19;13.43;;;9.23;;